createdAt,value
2023-03-07T00:00:37.565Z,-0.25
2023-03-07T00:03:05.708Z,-0.23
2023-03-07T00:05:34.070Z,-0.21
2023-03-07T00:08:02.910Z,-0.19
2023-03-07T00:10:31.037Z,-0.18
2023-03-07T00:13:01.119Z,-0.17
2023-03-07T00:15:29.342Z,-0.18
2023-03-07T00:17:58.387Z,-0.21
2023-03-07T00:20:26.488Z,-0.24
2023-03-07T00:22:54.463Z,-0.27
2023-03-07T00:25:22.559Z,-0.29
2023-03-07T00:27:50.653Z,-0.30
2023-03-07T00:30:18.748Z,-0.31
2023-03-07T00:32:47.582Z,-0.30
2023-03-07T00:35:15.963Z,-0.29
2023-03-07T00:37:43.920Z,-0.28
2023-03-07T00:40:14.136Z,-0.27
2023-03-07T00:42:43.648Z,-0.25
2023-03-07T00:45:11.613Z,-0.23
2023-03-07T00:47:42.024Z,-0.21
2023-03-07T00:50:10.583Z,-0.20
2023-03-07T00:52:39.588Z,-0.18
2023-03-07T00:55:08.521Z,-0.18
2023-03-07T00:57:36.683Z,-0.18
2023-03-07T01:00:05.784Z,-0.18
2023-03-07T01:02:33.972Z,-0.18
2023-03-07T01:05:04.723Z,-0.17
2023-03-07T01:07:32.848Z,-0.15
2023-03-07T01:10:01.773Z,-0.14
2023-03-07T01:12:31.485Z,-0.12
2023-03-07T01:14:59.969Z,-0.10
2023-03-07T01:17:27.997Z,-0.08
2023-03-07T01:19:55.962Z,-0.08
2023-03-07T01:22:24.158Z,-0.08
2023-03-07T01:24:54.586Z,-0.07
2023-03-07T01:27:22.606Z,-0.07
2023-03-07T01:29:50.607Z,-0.08
2023-03-07T01:32:18.674Z,-0.07
2023-03-07T01:34:46.630Z,-0.07
2023-03-07T01:37:15.015Z,-0.05
2023-03-07T01:39:43.091Z,-0.02
2023-03-07T01:42:15.467Z,0.01
2023-03-07T01:45:05.552Z,0.05
2023-03-07T01:47:41.601Z,0.09
2023-03-07T01:50:13.929Z,0.12
2023-03-07T01:52:49.586Z,0.15
2023-03-07T01:55:22.870Z,0.16
2023-03-07T01:57:53.854Z,0.16
2023-03-07T02:00:31.517Z,0.16
2023-03-07T02:03:06.515Z,0.15
2023-03-07T02:05:41.215Z,0.13
2023-03-07T02:08:11.507Z,0.11
2023-03-07T02:10:39.576Z,0.11
2023-03-07T02:13:07.579Z,0.10
2023-03-07T02:15:48.086Z,0.09
2023-03-07T02:18:19.391Z,0.09
2023-03-07T02:21:09.483Z,0.10
2023-03-07T02:24:00.270Z,0.11
2023-03-07T02:26:28.447Z,0.12
2023-03-07T02:29:02.084Z,0.14
2023-03-07T02:31:30.512Z,0.15
2023-03-07T02:33:59.806Z,0.15
2023-03-07T02:36:33.646Z,0.16
2023-03-07T02:39:12.160Z,0.14
2023-03-07T02:41:40.856Z,0.12
2023-03-07T02:44:15.166Z,0.09
2023-03-07T02:46:43.511Z,0.07
2023-03-07T02:49:12.961Z,0.04
2023-03-07T02:51:40.808Z,0.03
2023-03-07T02:54:08.692Z,0.00
2023-03-07T02:56:37.004Z,-0.01
2023-03-07T02:59:05.071Z,-0.01
2023-03-07T03:01:33.748Z,-0.01
2023-03-07T03:04:01.889Z,-0.01
2023-03-07T03:06:29.950Z,-0.01
2023-03-07T03:08:58.924Z,-0.01
2023-03-07T03:11:27.816Z,-0.01
2023-03-07T03:13:57.574Z,-0.01
2023-03-07T03:16:26.043Z,-0.02
2023-03-07T03:18:54.694Z,-0.02
2023-03-07T03:21:22.845Z,-0.03
2023-03-07T03:23:51.128Z,-0.01
2023-03-07T03:26:19.029Z,0.01
2023-03-07T03:28:47.206Z,0.03
2023-03-07T03:31:15.355Z,0.06
2023-03-07T03:33:45.380Z,0.09
2023-03-07T03:36:15.818Z,0.10
2023-03-07T03:38:44.624Z,0.12
2023-03-07T03:41:16.164Z,0.14
2023-03-07T03:43:44.510Z,0.15
2023-03-07T03:46:13.120Z,0.16
2023-03-07T03:48:41.480Z,0.16
2023-03-07T03:51:14.722Z,0.18
2023-03-07T03:53:43.445Z,0.20
2023-03-07T03:56:16.607Z,0.23
2023-03-07T03:58:51.607Z,0.28
2023-03-07T04:01:20.147Z,0.32
2023-03-07T04:03:49.592Z,0.36
2023-03-07T04:06:36.047Z,0.38
2023-03-07T04:09:13.840Z,0.41
2023-03-07T04:11:45.334Z,0.43
2023-03-07T04:14:13.768Z,0.45
2023-03-07T04:16:42.300Z,0.47
2023-03-07T04:19:12.902Z,0.49
2023-03-07T04:21:41.199Z,0.52
2023-03-07T04:24:12.694Z,0.55
2023-03-07T04:26:41.864Z,0.58
2023-03-07T04:29:10.824Z,0.61
2023-03-07T04:31:44.491Z,0.65
2023-03-07T04:34:12.630Z,0.69
2023-03-07T04:36:41.028Z,0.70
2023-03-07T04:39:09.426Z,0.72
2023-03-07T04:41:37.807Z,0.73
2023-03-07T04:44:10.427Z,0.75
2023-03-07T04:46:38.504Z,0.76
2023-03-07T04:49:06.570Z,0.77
2023-03-07T04:51:34.876Z,0.79
2023-03-07T04:54:03.513Z,0.81
2023-03-07T04:56:32.695Z,0.83
2023-03-07T04:59:01.448Z,0.84
2023-03-07T05:01:29.515Z,0.86
2023-03-07T05:03:58.320Z,0.88
2023-03-07T05:06:27.352Z,0.89
2023-03-07T05:08:55.378Z,0.88
2023-03-07T05:11:23.743Z,0.89
2023-03-07T05:13:54.915Z,0.90
2023-03-07T05:16:23.883Z,0.91
2023-03-07T05:18:51.882Z,0.93
2023-03-07T05:21:20.168Z,0.96
2023-03-07T05:23:50.998Z,1.00
2023-03-07T05:26:20.705Z,1.03
2023-03-07T05:28:49.521Z,1.07
2023-03-07T05:31:18.603Z,1.09
2023-03-07T05:33:47.483Z,1.12
2023-03-07T05:36:19.895Z,1.13
2023-03-07T05:38:48.274Z,1.14
2023-03-07T05:41:18.043Z,1.15
2023-03-07T05:43:47.092Z,1.14
2023-03-07T05:46:15.303Z,1.12
2023-03-07T05:48:43.410Z,1.10
2023-03-07T05:51:11.372Z,1.07
2023-03-07T05:54:41.951Z,1.02
2023-03-07T05:57:10.589Z,1.00
2023-03-07T05:59:39.510Z,1.00
2023-03-07T06:02:07.893Z,0.98
2023-03-07T06:04:36.729Z,0.98
2023-03-07T06:07:05.444Z,0.98
2023-03-07T06:09:36.206Z,0.97
2023-03-07T06:12:04.642Z,0.98
2023-03-07T06:14:37.435Z,0.99
2023-03-07T06:17:07.220Z,0.99
2023-03-07T06:19:35.627Z,1.01
2023-03-07T06:22:04.069Z,1.02
2023-03-07T06:24:32.680Z,1.03
2023-03-07T06:27:01.260Z,1.05
2023-03-07T06:29:30.191Z,1.09
2023-03-07T06:31:58.580Z,1.12
2023-03-07T06:34:26.531Z,1.17
2023-03-07T06:36:54.735Z,1.22
2023-03-07T06:39:23.089Z,1.26
2023-03-07T06:41:53.010Z,1.31
2023-03-07T06:44:20.926Z,1.35
2023-03-07T06:46:51.986Z,1.39
2023-03-07T06:49:20.946Z,1.43
2023-03-07T06:51:49.324Z,1.47
2023-03-07T06:54:17.834Z,1.52
2023-03-07T06:56:45.979Z,1.57
2023-03-07T06:59:17.185Z,1.61
2023-03-07T07:01:45.204Z,1.61
2023-03-07T07:04:13.381Z,1.63
2023-03-07T07:06:45.199Z,1.65
2023-03-07T07:09:14.319Z,1.67
2023-03-07T07:11:42.465Z,1.67
2023-03-07T07:14:13.311Z,1.66
2023-03-07T07:16:42.461Z,1.66
2023-03-07T07:19:10.577Z,1.67
2023-03-07T07:21:38.820Z,1.67
2023-03-07T07:24:07.261Z,1.67
2023-03-07T07:26:36.359Z,1.66
2023-03-07T07:29:04.415Z,1.65
2023-03-07T07:31:32.472Z,1.64
2023-03-07T07:34:00.905Z,1.66
2023-03-07T07:36:30.719Z,1.69
2023-03-07T07:38:59.262Z,1.72
2023-03-07T07:41:27.990Z,1.75
2023-03-07T07:43:57.087Z,1.76
2023-03-07T07:46:34.376Z,1.75
2023-03-07T07:49:03.501Z,1.74
2023-03-07T07:51:32.853Z,1.74
2023-03-07T07:54:00.984Z,1.76
2023-03-07T07:56:29.578Z,1.77
2023-03-07T07:58:57.467Z,1.78
2023-03-07T08:01:25.836Z,1.81
2023-03-07T08:03:54.155Z,1.84
2023-03-07T08:06:24.033Z,1.85
2023-03-07T08:08:52.321Z,1.88
2023-03-07T08:11:21.104Z,1.91
2023-03-07T08:13:50.657Z,1.98
2023-03-07T08:16:19.981Z,2.06
2023-03-07T08:18:49.570Z,2.13
2023-03-07T08:21:17.612Z,2.21
2023-03-07T08:23:46.267Z,2.29
2023-03-07T08:26:14.425Z,2.37
2023-03-07T08:28:42.529Z,2.44
2023-03-07T08:31:14.945Z,2.52
2023-03-07T08:33:44.290Z,2.59
2023-03-07T08:36:12.412Z,2.69
2023-03-07T08:38:40.239Z,2.81
2023-03-07T08:41:08.755Z,2.95
2023-03-07T08:43:37.301Z,3.08
2023-03-07T08:46:05.476Z,3.17
2023-03-07T08:48:33.904Z,3.24
2023-03-07T08:51:09.791Z,3.31
2023-03-07T08:53:40.416Z,3.33
2023-03-07T08:56:13.301Z,3.33
2023-03-07T08:58:41.572Z,3.39
2023-03-07T09:01:10.254Z,3.44
2023-03-07T09:03:38.437Z,3.49
2023-03-07T09:06:06.458Z,3.50
2023-03-07T09:08:34.388Z,3.51
2023-03-07T09:11:05.567Z,3.51
2023-03-07T09:13:42.958Z,3.49
2023-03-07T09:16:18.367Z,3.44
2023-03-07T09:18:46.413Z,3.36
2023-03-07T09:21:17.025Z,3.30
2023-03-07T09:23:45.063Z,3.27
2023-03-07T09:26:19.121Z,3.26
2023-03-07T09:28:47.553Z,3.27
2023-03-07T09:31:16.182Z,3.32
2023-03-07T09:33:47.053Z,3.40
2023-03-07T09:36:16.486Z,3.50
2023-03-07T09:38:44.356Z,3.61
2023-03-07T09:41:34.482Z,3.71
2023-03-07T09:44:21.215Z,3.78
2023-03-07T09:47:37.570Z,3.85
2023-03-07T09:50:12.360Z,3.90
2023-03-07T09:52:40.281Z,3.89
2023-03-07T09:55:13.739Z,3.82
2023-03-07T09:57:50.050Z,3.74
2023-03-07T10:00:38.244Z,3.68
2023-03-07T10:03:27.380Z,3.63
2023-03-07T10:05:57.700Z,3.63
2023-03-07T10:08:33.199Z,3.66
2023-03-07T10:11:13.613Z,3.71
2023-03-07T10:14:11.420Z,3.81
2023-03-07T10:17:21.724Z,3.93
2023-03-07T10:19:51.824Z,4.03
2023-03-07T10:22:35.406Z,4.10
2023-03-07T10:25:12.111Z,4.19
2023-03-07T10:27:40.304Z,4.24
2023-03-07T10:30:15.878Z,4.26
2023-03-07T10:32:44.016Z,4.27
2023-03-07T10:35:13.607Z,4.21
2023-03-07T10:38:04.112Z,4.13
2023-03-07T10:40:35.354Z,4.10
2023-03-07T10:43:04.818Z,4.10
2023-03-07T10:45:35.201Z,4.14
2023-03-07T10:48:06.819Z,4.17
2023-03-07T10:51:04.496Z,4.20
2023-03-07T10:53:34.237Z,4.18
2023-03-07T10:56:15.417Z,4.20
2023-03-07T10:59:03.492Z,4.23
2023-03-07T11:01:32.595Z,4.25
2023-03-07T11:04:07.084Z,4.27
2023-03-07T11:06:37.435Z,4.29
2023-03-07T11:09:32.356Z,4.29
2023-03-07T11:12:05.067Z,4.29
2023-03-07T11:14:54.462Z,4.32
2023-03-07T11:17:27.283Z,4.39
2023-03-07T11:19:56.391Z,4.43
2023-03-07T11:22:35.966Z,4.48
2023-03-07T11:25:25.411Z,4.52
2023-03-07T11:27:57.979Z,4.55
2023-03-07T11:30:38.361Z,4.56
2023-03-07T11:33:22.740Z,4.60
2023-03-07T11:36:03.898Z,4.69
2023-03-07T11:38:41.289Z,4.82
2023-03-07T11:41:19.784Z,4.89
2023-03-07T11:43:53.837Z,4.96
2023-03-07T11:46:32.530Z,5.02
2023-03-07T11:49:12.666Z,5.06
2023-03-07T11:51:50.304Z,5.06
2023-03-07T11:54:30.435Z,5.02
2023-03-07T11:57:12.180Z,4.98
2023-03-07T11:59:52.386Z,4.92
2023-03-07T12:02:42.251Z,4.90
2023-03-07T12:05:20.997Z,4.89
2023-03-07T12:07:49.005Z,4.88
2023-03-07T12:10:36.116Z,4.86
2023-03-07T12:13:38.195Z,4.85
2023-03-07T12:16:12.578Z,4.83
2023-03-07T12:18:43.930Z,4.79
2023-03-07T12:21:40.120Z,4.76
2023-03-07T12:24:19.594Z,4.72
2023-03-07T12:26:53.609Z,4.72
2023-03-07T12:29:34.627Z,4.74
2023-03-07T12:32:07.167Z,4.76
2023-03-07T12:34:45.004Z,4.78
2023-03-07T12:37:23.620Z,4.82
2023-03-07T12:39:57.907Z,4.84
2023-03-07T12:42:42.403Z,4.87
2023-03-07T12:45:41.302Z,4.94
2023-03-07T12:48:17.290Z,5.02
2023-03-07T12:51:06.222Z,5.04
2023-03-07T12:53:42.881Z,5.03
2023-03-07T12:56:29.868Z,5.00
2023-03-07T12:59:03.623Z,4.96
2023-03-07T13:01:40.198Z,4.93
2023-03-07T13:04:16.627Z,4.93
2023-03-07T13:06:45.051Z,4.91
2023-03-07T13:09:20.195Z,4.92
2023-03-07T13:12:08.069Z,4.95
2023-03-07T13:14:48.470Z,4.98
2023-03-07T13:17:35.236Z,5.01
2023-03-07T13:20:09.038Z,5.02
2023-03-07T13:22:43.236Z,5.05
2023-03-07T13:25:21.283Z,5.07
2023-03-07T13:27:51.740Z,5.06
2023-03-07T13:30:23.491Z,5.04
2023-03-07T13:32:51.950Z,5.04
2023-03-07T13:35:31.839Z,5.04
2023-03-07T13:38:15.339Z,5.04
2023-03-07T13:40:43.640Z,5.02
2023-03-07T13:43:26.348Z,5.01
2023-03-07T13:46:05.944Z,5.00
2023-03-07T13:48:35.985Z,4.99
2023-03-07T13:51:07.662Z,4.99
2023-03-07T13:53:41.796Z,4.97
2023-03-07T13:56:10.960Z,4.98
2023-03-07T13:58:39.438Z,4.98
2023-03-07T14:01:13.719Z,5.00
2023-03-07T14:03:46.756Z,5.02
2023-03-07T14:06:37.940Z,5.02
2023-03-07T14:09:07.735Z,5.03
2023-03-07T14:11:57.737Z,5.02
2023-03-07T14:14:56.857Z,5.01
2023-03-07T14:17:31.756Z,5.01
2023-03-07T14:20:20.708Z,5.00
2023-03-07T14:23:04.188Z,5.00
2023-03-07T14:25:34.884Z,5.00
2023-03-07T14:28:05.653Z,4.99
2023-03-07T14:30:33.908Z,5.00
2023-03-07T14:33:03.401Z,5.00
2023-03-07T14:35:42.687Z,4.97
2023-03-07T14:38:19.603Z,4.94
2023-03-07T14:41:12.387Z,4.93
2023-03-07T14:44:09.791Z,4.91
2023-03-07T14:47:01.592Z,4.88
2023-03-07T14:49:48.611Z,4.86
2023-03-07T14:52:30.022Z,4.82
2023-03-07T14:55:03.572Z,4.81
2023-03-07T14:57:44.027Z,4.80
2023-03-07T15:00:24.900Z,4.79
2023-03-07T15:02:53.821Z,4.76
2023-03-07T15:05:35.566Z,4.73
2023-03-07T15:08:06.895Z,4.69
2023-03-07T15:10:40.737Z,4.67
2023-03-07T15:13:23.845Z,4.65
2023-03-07T15:15:56.525Z,4.63
2023-03-07T15:18:39.164Z,4.59
2023-03-07T15:21:08.688Z,4.55
2023-03-07T15:23:37.168Z,4.52
2023-03-07T15:26:06.655Z,4.49
2023-03-07T15:28:36.738Z,4.44
2023-03-07T15:31:05.063Z,4.41
2023-03-07T15:33:33.694Z,4.37
2023-03-07T15:36:06.875Z,4.34
2023-03-07T15:38:35.394Z,4.31
2023-03-07T15:41:33.647Z,4.27
2023-03-07T15:44:04.870Z,4.24
2023-03-07T15:46:32.825Z,4.20
2023-03-07T15:49:00.767Z,4.17
2023-03-07T15:51:35.148Z,4.13
2023-03-07T15:54:39.533Z,4.09
2023-03-07T15:57:16.022Z,4.02
2023-03-07T15:59:52.168Z,3.97
2023-03-07T16:02:34.969Z,3.92
2023-03-07T16:05:06.234Z,3.87
2023-03-07T16:07:38.444Z,3.80
2023-03-07T16:10:06.779Z,3.75
2023-03-07T16:12:35.015Z,3.70
2023-03-07T16:15:05.902Z,3.65
2023-03-07T16:17:37.526Z,3.61
2023-03-07T16:20:16.274Z,3.56
2023-03-07T16:22:49.081Z,3.52
2023-03-07T16:25:17.009Z,3.48
2023-03-07T16:27:56.745Z,3.44
2023-03-07T16:30:26.690Z,3.39
2023-03-07T16:32:55.000Z,3.36
2023-03-07T16:35:24.629Z,3.32
2023-03-07T16:37:53.170Z,3.29
2023-03-07T16:40:21.375Z,3.26
2023-03-07T16:43:23.885Z,3.22
2023-03-07T16:45:55.317Z,3.17
2023-03-07T16:48:23.548Z,3.13
2023-03-07T16:50:51.642Z,3.12
2023-03-07T16:53:20.883Z,3.11
2023-03-07T16:55:49.096Z,3.11
2023-03-07T16:58:28.101Z,3.11
2023-03-07T17:00:56.387Z,3.12
2023-03-07T17:03:25.252Z,3.12
2023-03-07T17:05:53.149Z,3.10
2023-03-07T17:08:22.415Z,3.10
2023-03-07T17:10:50.281Z,3.09
2023-03-07T17:13:19.287Z,3.07
2023-03-07T17:15:47.767Z,3.04
2023-03-07T17:18:17.468Z,3.00
2023-03-07T17:20:46.377Z,2.97
2023-03-07T17:23:15.116Z,2.95
2023-03-07T17:25:43.371Z,2.91
2023-03-07T17:28:14.152Z,2.87
2023-03-07T17:30:45.125Z,2.83
2023-03-07T17:33:15.235Z,2.77
2023-03-07T17:35:43.805Z,2.70
2023-03-07T17:38:12.289Z,2.63
2023-03-07T17:40:40.438Z,2.56
2023-03-07T17:43:13.063Z,2.50
2023-03-07T17:45:51.091Z,2.45
2023-03-07T17:48:20.171Z,2.41
2023-03-07T17:50:48.054Z,2.39
2023-03-07T17:53:16.972Z,2.38
2023-03-07T17:55:44.916Z,2.39
2023-03-07T17:58:12.858Z,2.39
2023-03-07T18:00:40.842Z,2.40
2023-03-07T18:03:08.908Z,2.41
2023-03-07T18:05:39.251Z,2.42
2023-03-07T18:08:07.620Z,2.42
2023-03-07T18:12:04.451Z,2.42
2023-03-07T18:14:33.128Z,2.42
2023-03-07T18:17:01.195Z,2.41
2023-03-07T18:19:34.333Z,2.39
2023-03-07T18:22:02.201Z,2.38
2023-03-07T18:24:30.404Z,2.35
2023-03-07T18:27:03.313Z,2.34
2023-03-07T18:29:31.958Z,2.31
2023-03-07T18:32:00.381Z,2.28
2023-03-07T18:34:29.191Z,2.26
2023-03-07T18:36:57.234Z,2.25
2023-03-07T18:39:27.388Z,2.24
2023-03-07T18:41:55.340Z,2.24
2023-03-07T18:44:23.419Z,2.23
2023-03-07T18:46:52.766Z,2.21
2023-03-07T18:49:20.931Z,2.20
2023-03-07T18:51:49.157Z,2.21
2023-03-07T18:54:17.459Z,2.21
2023-03-07T18:56:46.941Z,2.20
2023-03-07T18:59:16.090Z,2.19
2023-03-07T19:01:45.013Z,2.18
2023-03-07T19:04:13.089Z,2.16
2023-03-07T19:06:44.629Z,2.13
2023-03-07T19:09:17.510Z,2.10
2023-03-07T19:11:47.052Z,2.06
2023-03-07T19:14:16.318Z,2.02
2023-03-07T19:16:44.433Z,1.99
2023-03-07T19:19:13.088Z,1.94
2023-03-07T19:21:41.190Z,1.88
2023-03-07T19:24:10.352Z,1.82
2023-03-07T19:26:40.918Z,1.78
2023-03-07T19:29:09.886Z,1.74
2023-03-07T19:31:38.070Z,1.68
2023-03-07T19:34:06.554Z,1.64
2023-03-07T19:36:35.405Z,1.60
2023-03-07T19:39:03.822Z,1.57
2023-03-07T19:41:32.993Z,1.54
2023-03-07T19:44:01.134Z,1.51
2023-03-07T19:46:30.407Z,1.48
2023-03-07T19:49:00.211Z,1.46
2023-03-07T19:51:28.178Z,1.45
2023-03-07T19:53:57.596Z,1.44
2023-03-07T19:56:28.918Z,1.45
2023-03-07T19:58:57.557Z,1.45
2023-03-07T20:01:27.495Z,1.44
2023-03-07T20:03:55.659Z,1.43
2023-03-07T20:06:29.585Z,1.39
2023-03-07T20:08:58.239Z,1.35
2023-03-07T20:11:32.038Z,1.32
2023-03-07T20:14:01.165Z,1.29
2023-03-07T20:16:29.636Z,1.25
2023-03-07T20:18:59.874Z,1.21
2023-03-07T20:21:34.594Z,1.18
2023-03-07T20:24:03.089Z,1.16
2023-03-07T20:26:33.096Z,1.14
2023-03-07T20:29:03.729Z,1.14
2023-03-07T20:31:32.126Z,1.13
2023-03-07T20:34:01.225Z,1.12
2023-03-07T20:36:30.914Z,1.13
2023-03-07T20:39:00.630Z,1.12
2023-03-07T20:41:30.588Z,1.11
2023-03-07T20:44:00.982Z,1.11
2023-03-07T20:46:30.541Z,1.09
2023-03-07T20:48:59.480Z,1.08
2023-03-07T20:51:29.832Z,1.07
2023-03-07T20:54:02.181Z,1.05
2023-03-07T20:56:31.711Z,1.03
2023-03-07T20:59:03.873Z,1.01
2023-03-07T21:01:33.042Z,0.99
2023-03-07T21:04:06.265Z,0.97
2023-03-07T21:06:40.191Z,0.94
2023-03-07T21:09:10.271Z,0.91
2023-03-07T21:11:40.802Z,0.88
2023-03-07T21:14:09.484Z,0.87
2023-03-07T21:16:38.827Z,0.84
2023-03-07T21:19:07.222Z,0.81
2023-03-07T21:21:35.613Z,0.80
2023-03-07T21:24:04.119Z,0.80
2023-03-07T21:26:33.682Z,0.79
2023-03-07T21:29:03.771Z,0.78
2023-03-07T21:31:34.708Z,0.77
2023-03-07T21:34:04.540Z,0.78
2023-03-07T21:36:33.172Z,0.79
2023-03-07T21:39:04.307Z,0.80
2023-03-07T21:41:32.349Z,0.81
2023-03-07T21:44:01.022Z,0.81
2023-03-07T21:46:29.139Z,0.82
2023-03-07T21:49:01.425Z,0.82
2023-03-07T21:51:29.702Z,0.81
2023-03-07T21:53:58.008Z,0.80
2023-03-07T21:56:26.054Z,0.79
2023-03-07T21:58:54.228Z,0.78
2023-03-07T22:01:28.001Z,0.77
2023-03-07T22:03:56.870Z,0.77
2023-03-07T22:06:25.014Z,0.77
2023-03-07T22:08:53.242Z,0.76
2023-03-07T22:11:21.367Z,0.76
2023-03-07T22:13:50.984Z,0.79
2023-03-07T22:16:21.791Z,0.80
2023-03-07T22:18:55.054Z,0.81
2023-03-07T22:21:26.272Z,0.82
2023-03-07T22:24:00.604Z,0.83
2023-03-07T22:26:29.471Z,0.84
2023-03-07T22:28:57.501Z,0.83
2023-03-07T22:31:25.802Z,0.83
2023-03-07T22:33:54.623Z,0.82
2023-03-07T22:36:24.590Z,0.80
2023-03-07T22:38:55.943Z,0.79
2023-03-07T22:41:24.715Z,0.75
2023-03-07T22:43:52.757Z,0.74
2023-03-07T22:46:21.337Z,0.72
2023-03-07T22:48:54.678Z,0.72
2023-03-07T22:51:23.948Z,0.71
2023-03-07T22:53:53.663Z,0.70
2023-03-07T22:56:23.543Z,0.70
2023-03-07T22:58:58.733Z,0.71
2023-03-07T23:01:28.321Z,0.72
2023-03-07T23:03:57.225Z,0.72
2023-03-07T23:06:30.820Z,0.73
2023-03-07T23:08:59.919Z,0.74
2023-03-07T23:11:32.712Z,0.76
2023-03-07T23:14:01.143Z,0.78
2023-03-07T23:16:30.158Z,0.80
2023-03-07T23:19:03.364Z,0.81
2023-03-07T23:21:32.362Z,0.81
2023-03-07T23:24:04.703Z,0.81
2023-03-07T23:26:34.744Z,0.81
2023-03-07T23:29:04.147Z,0.81
2023-03-07T23:31:35.815Z,0.81
2023-03-07T23:34:06.571Z,0.81
2023-03-07T23:36:35.999Z,0.80
2023-03-07T23:39:04.078Z,0.80
2023-03-07T23:41:32.203Z,0.80
2023-03-07T23:44:00.618Z,0.79
2023-03-07T23:46:29.026Z,0.79
2023-03-07T23:48:57.457Z,0.79
2023-03-07T23:51:25.625Z,0.79
2023-03-07T23:53:55.466Z,0.79
2023-03-07T23:56:23.760Z,0.79
2023-03-07T23:58:52.045Z,0.77
